createdAt,value
2022-10-15T00:00:24.749Z,1209.47
2022-10-15T00:02:51.885Z,1210.53
2022-10-15T00:05:19.342Z,1212.18
2022-10-15T00:07:46.501Z,1216.72
2022-10-15T00:10:13.942Z,1216.10
2022-10-15T00:12:41.610Z,1221.90
2022-10-15T00:15:09.022Z,1216.97
2022-10-15T00:17:36.521Z,1223.53
2022-10-15T00:20:09.624Z,1229.50
2022-10-15T00:22:37.391Z,1218.93
2022-10-15T00:25:05.577Z,1219.47
2022-10-15T00:27:32.723Z,1216.88
2022-10-15T00:30:00.365Z,1212.47
2022-10-15T00:32:27.729Z,1215.63
2022-10-15T00:34:55.062Z,1216.63
2022-10-15T00:37:22.575Z,1222.65
2022-10-15T00:39:49.790Z,1219.60
2022-10-15T00:42:17.230Z,1225.70
2022-10-15T00:44:50.287Z,1232.35
2022-10-15T00:47:17.622Z,1217.85
2022-10-15T00:50:07.291Z,1224.53
2022-10-15T00:52:42.262Z,1229.40
2022-10-15T00:55:19.334Z,1232.95
2022-10-15T00:57:49.443Z,1227.97
2022-10-15T01:00:17.409Z,1217.70
2022-10-15T01:02:45.691Z,1220.05
2022-10-15T01:05:14.133Z,1233.22
2022-10-15T01:07:41.302Z,1230.85
2022-10-15T01:10:09.523Z,1214.57
2022-10-15T01:13:18.534Z,1214.65
2022-10-15T01:16:09.548Z,1222.53
2022-10-15T01:18:46.738Z,1238.65
2022-10-15T01:21:24.846Z,1198.07
2022-10-15T01:24:25.963Z,1196.80
2022-10-15T01:27:23.530Z,1196.37
2022-10-15T01:30:02.363Z,1201.68
2022-10-15T01:32:34.939Z,1206.65
2022-10-15T01:35:39.726Z,1165.00
2022-10-15T01:38:42.198Z,1167.07
2022-10-15T01:41:41.590Z,1173.45
2022-10-15T01:44:24.491Z,1178.07
2022-10-15T01:47:19.497Z,1175.85
2022-10-15T01:49:47.654Z,1171.93
2022-10-15T01:52:19.438Z,1176.40
2022-10-15T01:54:47.294Z,1165.18
2022-10-15T01:57:15.746Z,1173.57
2022-10-15T01:59:43.394Z,1181.65
2022-10-15T02:02:10.706Z,1177.47
2022-10-15T02:04:40.394Z,1187.97
2022-10-15T02:07:12.681Z,1199.70
2022-10-15T02:09:42.897Z,1194.75
2022-10-15T02:12:38.565Z,1189.60
2022-10-15T02:15:11.795Z,1180.88
2022-10-15T02:17:41.962Z,1186.45
2022-10-15T02:20:16.338Z,1181.65
2022-10-15T02:22:50.263Z,1172.32
2022-10-15T02:25:22.277Z,1166.88
2022-10-15T02:27:51.614Z,1155.97
2022-10-15T02:30:19.090Z,1165.13
2022-10-15T02:32:51.855Z,1165.55
2022-10-15T02:35:22.035Z,1160.20
2022-10-15T02:37:52.613Z,1161.95
2022-10-15T02:40:27.179Z,1165.97
2022-10-15T02:42:55.490Z,1162.82
2022-10-15T02:45:22.698Z,1170.10
2022-10-15T02:47:50.232Z,1164.30
2022-10-15T02:50:19.528Z,1160.60
2022-10-15T02:52:46.815Z,1162.18
2022-10-15T02:55:14.123Z,1162.20
2022-10-15T02:57:42.170Z,1169.22
2022-10-15T03:00:09.741Z,1164.80
2022-10-15T03:02:39.023Z,1166.93
2022-10-15T03:05:06.978Z,1166.13
2022-10-15T03:07:34.243Z,1151.13
2022-10-15T03:10:01.683Z,1159.78
2022-10-15T03:12:29.381Z,1157.30
2022-10-15T03:14:57.122Z,1153.00
2022-10-15T03:17:25.266Z,1165.30
2022-10-15T03:19:52.707Z,1159.28
2022-10-15T03:22:19.826Z,1161.35
2022-10-15T03:24:51.041Z,1163.75
2022-10-15T03:27:23.912Z,1166.68
2022-10-15T03:29:51.662Z,1162.53
2022-10-15T03:32:18.897Z,1169.85
2022-10-15T03:34:46.146Z,1177.57
2022-10-15T03:37:15.325Z,1169.95
2022-10-15T03:39:42.458Z,1184.70
2022-10-15T03:42:10.443Z,1180.97
2022-10-15T03:44:45.021Z,1183.90
2022-10-15T03:47:16.001Z,1182.97
2022-10-15T03:49:46.010Z,1189.90
2022-10-15T03:52:13.731Z,1219.90
2022-10-15T03:54:42.158Z,1211.20
2022-10-15T03:57:10.679Z,1196.65
2022-10-15T04:02:17.229Z,1184.37
2022-10-15T04:04:44.637Z,1196.63
2022-10-15T04:07:11.941Z,1202.07
2022-10-15T04:09:39.533Z,1196.67
2022-10-15T04:12:32.588Z,1190.03
2022-10-15T04:14:59.801Z,1200.57
2022-10-15T04:17:26.955Z,1201.88
2022-10-15T04:19:54.085Z,1183.35
2022-10-15T04:22:22.577Z,1198.95
2022-10-15T04:24:55.388Z,1194.60
2022-10-15T04:27:27.935Z,1207.68
2022-10-15T04:30:05.204Z,1198.35
2022-10-15T04:32:32.766Z,1196.93
2022-10-15T04:35:00.140Z,1200.00
2022-10-15T04:37:46.495Z,1189.72
2022-10-15T04:40:13.721Z,1191.45
2022-10-15T04:42:40.881Z,1173.35
2022-10-15T04:45:08.637Z,1178.20
2022-10-15T04:47:35.731Z,1183.20
2022-10-15T04:50:08.180Z,1183.88
2022-10-15T04:53:01.694Z,1187.28
2022-10-15T04:55:32.978Z,1187.15
2022-10-15T04:58:01.707Z,1188.90
2022-10-15T05:00:30.541Z,1182.13
2022-10-15T05:03:11.937Z,1178.37
2022-10-15T05:05:48.746Z,1179.93
2022-10-15T05:08:15.971Z,1168.47
2022-10-15T05:11:13.989Z,1171.03
2022-10-15T05:13:41.254Z,1190.88
2022-10-15T05:16:28.236Z,1172.00
2022-10-15T05:18:57.766Z,1175.70
2022-10-15T05:21:24.922Z,1192.72
2022-10-15T05:23:56.283Z,1190.13
2022-10-15T05:26:43.735Z,1175.78
2022-10-15T05:29:11.024Z,1176.60
2022-10-15T05:31:38.822Z,1177.88
2022-10-15T05:34:15.898Z,1184.57
2022-10-15T05:36:52.449Z,1181.10
2022-10-15T05:39:19.665Z,1184.03
2022-10-15T05:41:46.795Z,1171.13
2022-10-15T05:44:14.516Z,1174.53
2022-10-15T05:46:41.740Z,1187.63
2022-10-15T05:49:10.646Z,1183.63
2022-10-15T05:51:48.027Z,1186.43
2022-10-15T05:54:24.109Z,1197.65
2022-10-15T05:56:51.390Z,1197.20
2022-10-15T05:59:18.596Z,1190.90
2022-10-15T06:01:45.733Z,1183.40
2022-10-15T06:04:14.462Z,1187.30
2022-10-15T06:06:42.583Z,1180.93
2022-10-15T06:09:09.790Z,1184.38
2022-10-15T06:11:37.299Z,1190.07
2022-10-15T06:14:04.563Z,1201.70
2022-10-15T06:16:31.744Z,1196.30
2022-10-15T06:18:59.113Z,1199.35
2022-10-15T06:21:26.289Z,1195.68
2022-10-15T06:23:53.497Z,1195.97
2022-10-15T06:26:20.707Z,1195.72
2022-10-15T06:28:48.993Z,1201.18
2022-10-15T06:31:16.467Z,1197.05
2022-10-15T06:33:43.945Z,1194.55
2022-10-15T06:36:13.509Z,1190.97
2022-10-15T06:38:40.648Z,1154.60
2022-10-15T06:41:08.592Z,1145.45
2022-10-15T06:43:36.383Z,1121.90
2022-10-15T06:46:04.884Z,1123.18
2022-10-15T06:48:32.764Z,1057.13
2022-10-15T06:51:00.753Z,1034.82
2022-10-15T06:53:28.915Z,1023.42
2022-10-15T06:56:00.448Z,1034.18
2022-10-15T06:58:27.598Z,982.15
2022-10-15T07:01:00.761Z,1062.80
2022-10-15T07:03:28.197Z,1073.60
2022-10-15T07:05:55.440Z,1078.05
2022-10-15T07:08:22.585Z,1127.68
2022-10-15T07:10:49.747Z,1132.47
2022-10-15T07:13:16.887Z,1141.68
2022-10-15T07:15:46.185Z,1146.90
2022-10-15T07:18:13.390Z,1128.80
2022-10-15T07:20:41.704Z,1137.90
2022-10-15T07:23:08.975Z,1138.97
2022-10-15T07:25:36.102Z,1116.82
2022-10-15T07:28:03.307Z,1135.80
2022-10-15T07:30:30.562Z,1139.75
2022-10-15T07:32:58.148Z,1149.30
2022-10-15T07:35:26.271Z,1152.05
2022-10-15T07:37:53.552Z,1151.28
2022-10-15T07:40:20.888Z,1156.22
2022-10-15T07:42:54.802Z,1198.38
2022-10-15T07:45:22.611Z,1185.88
2022-10-15T07:47:49.852Z,1181.75
2022-10-15T07:50:17.423Z,1185.28
2022-10-15T07:52:45.427Z,1184.43
2022-10-15T07:55:13.006Z,1174.72
2022-10-15T07:57:40.447Z,1182.80
2022-10-15T08:00:08.004Z,1182.78
2022-10-15T08:02:39.785Z,1177.78
2022-10-15T08:05:07.592Z,1189.72
2022-10-15T08:07:34.802Z,1197.15
2022-10-15T08:10:06.390Z,1192.95
2022-10-15T08:12:33.578Z,1199.07
2022-10-15T08:15:00.808Z,1199.13
2022-10-15T08:17:27.999Z,1188.90
2022-10-15T08:19:55.502Z,1192.38
2022-10-15T08:22:22.928Z,1187.47
2022-10-15T08:24:50.265Z,1190.40
2022-10-15T08:27:17.363Z,1196.35
2022-10-15T08:29:47.452Z,1189.30
2022-10-15T08:32:14.642Z,1190.37
2022-10-15T08:34:41.953Z,1186.35
2022-10-15T08:37:09.201Z,1189.35
2022-10-15T08:39:36.497Z,1191.97
2022-10-15T08:42:06.295Z,1186.82
2022-10-15T08:44:44.250Z,1191.20
2022-10-15T08:47:14.648Z,1190.75
2022-10-15T08:49:48.254Z,1195.47
2022-10-15T08:52:19.659Z,1187.20
2022-10-15T08:54:47.111Z,1181.82
2022-10-15T08:57:46.994Z,1186.03
2022-10-15T09:00:21.993Z,1180.57
2022-10-15T09:02:58.321Z,1185.85
2022-10-15T09:05:47.325Z,1182.43
2022-10-15T09:08:14.489Z,1182.30
2022-10-15T09:10:50.686Z,1180.07
2022-10-15T09:13:24.673Z,1185.80
2022-10-15T09:15:54.671Z,1185.28
2022-10-15T09:18:25.067Z,1193.57
2022-10-15T09:20:53.509Z,1181.80
2022-10-15T09:23:22.985Z,1184.78
2022-10-15T09:25:57.725Z,1191.97
2022-10-15T09:28:27.744Z,1187.23
2022-10-15T09:30:58.064Z,1185.97
2022-10-15T09:33:47.511Z,1189.38
2022-10-15T09:36:17.719Z,1190.28
2022-10-15T09:38:53.389Z,1186.13
2022-10-15T09:41:23.351Z,1193.97
2022-10-15T09:43:52.148Z,1185.68
2022-10-15T09:46:20.303Z,1189.78
2022-10-15T09:48:57.946Z,1195.30
2022-10-15T09:51:28.597Z,1198.20
2022-10-15T09:54:18.669Z,1193.10
2022-10-15T09:56:54.789Z,1190.32
2022-10-15T09:59:23.196Z,1186.72
2022-10-15T10:01:57.768Z,1183.07
2022-10-15T10:04:28.243Z,1185.65
2022-10-15T10:06:59.157Z,1189.20
2022-10-15T10:09:31.601Z,1186.18
2022-10-15T10:12:01.378Z,1177.30
2022-10-15T10:14:33.211Z,1184.10
2022-10-15T10:17:06.587Z,1178.43
2022-10-15T10:19:33.747Z,1181.18
2022-10-15T10:22:13.782Z,1180.80
2022-10-15T10:24:40.977Z,1179.37
2022-10-15T10:27:38.111Z,1178.22
2022-10-15T10:30:07.642Z,1183.43
2022-10-15T10:32:35.433Z,1177.10
2022-10-15T10:35:03.752Z,1175.90
2022-10-15T10:37:42.053Z,1176.45
2022-10-15T10:40:22.318Z,1177.47
2022-10-15T10:42:49.487Z,1171.40
2022-10-15T10:45:18.871Z,1174.35
2022-10-15T10:47:46.407Z,1179.45
2022-10-15T10:50:27.978Z,1175.40
2022-10-15T10:52:55.235Z,1182.35
2022-10-15T10:55:25.129Z,1176.63
2022-10-15T10:57:54.382Z,1178.32
2022-10-15T11:00:36.729Z,1177.88
2022-10-15T11:03:04.286Z,1185.88
2022-10-15T11:05:34.551Z,1177.88
2022-10-15T11:08:04.587Z,1179.63
2022-10-15T11:10:48.022Z,1187.03
2022-10-15T11:13:15.181Z,1180.03
2022-10-15T11:15:45.323Z,1176.47
2022-10-15T11:18:27.566Z,1180.88
2022-10-15T11:20:59.754Z,1183.78
2022-10-15T11:24:09.800Z,1183.87
2022-10-15T11:26:59.141Z,1178.10
2022-10-15T11:29:58.906Z,1187.30
2022-10-15T11:33:05.327Z,1188.05
2022-10-15T11:35:52.548Z,1184.10
2022-10-15T11:38:26.373Z,1179.23
2022-10-15T11:40:56.313Z,1180.05
2022-10-15T11:43:35.047Z,1191.88
2022-10-15T11:46:07.429Z,1196.72
2022-10-15T11:49:02.145Z,1196.65
2022-10-15T11:51:45.667Z,1197.07
2022-10-15T11:54:33.561Z,1199.43
2022-10-15T11:57:03.653Z,1183.30
2022-10-15T11:59:40.625Z,1192.88
2022-10-15T12:02:15.829Z,1194.07
2022-10-15T12:05:30.919Z,1190.82
2022-10-15T12:07:58.442Z,1189.47
2022-10-15T12:10:32.121Z,1198.82
2022-10-15T12:13:03.909Z,1202.67
2022-10-15T12:15:43.371Z,1199.07
2022-10-15T12:18:25.903Z,1196.25
2022-10-15T12:20:55.545Z,1193.30
2022-10-15T12:23:24.056Z,1196.35
2022-10-15T12:25:51.347Z,1192.07
2022-10-15T12:28:29.867Z,1192.30
2022-10-15T12:30:58.669Z,1199.55
2022-10-15T12:33:31.950Z,1195.43
2022-10-15T12:36:00.866Z,1201.47
2022-10-15T12:38:32.698Z,1207.05
2022-10-15T12:41:08.943Z,1204.33
2022-10-15T12:43:38.400Z,1207.43
2022-10-15T12:46:06.775Z,1199.43
2022-10-15T12:48:36.184Z,1195.85
2022-10-15T12:51:21.775Z,1206.25
2022-10-15T12:53:50.391Z,1210.18
2022-10-15T12:56:17.617Z,1207.70
2022-10-15T12:58:46.640Z,1210.68
2022-10-15T13:01:13.861Z,1207.35
2022-10-15T13:03:50.451Z,1212.85
2022-10-15T13:06:20.835Z,1219.60
2022-10-15T13:09:08.507Z,1210.10
2022-10-15T13:11:46.635Z,1215.38
2022-10-15T13:14:13.965Z,1222.20
2022-10-15T13:16:45.415Z,1222.88
2022-10-15T13:19:19.903Z,1229.95
2022-10-15T13:21:53.935Z,1233.45
2022-10-15T13:24:23.051Z,1232.23
2022-10-15T13:26:50.821Z,1228.75
2022-10-15T13:29:21.663Z,1228.47
2022-10-15T13:31:49.047Z,1225.72
2022-10-15T13:34:24.975Z,1211.53
2022-10-15T13:36:52.698Z,1210.22
2022-10-15T13:42:08.426Z,1214.25
2022-10-15T13:44:35.699Z,1212.30
2022-10-15T13:47:03.100Z,1218.05
2022-10-15T13:49:30.330Z,1215.32
2022-10-15T13:51:57.531Z,1224.82
2022-10-15T13:54:26.331Z,1222.75
2022-10-15T13:56:55.763Z,1218.97
2022-10-15T13:59:23.631Z,1216.93
2022-10-15T14:02:00.732Z,1214.97
2022-10-15T14:04:32.654Z,1222.28
2022-10-15T14:07:21.911Z,1223.88
2022-10-15T14:09:49.967Z,1216.10
2022-10-15T14:12:17.114Z,1218.33
2022-10-15T14:14:46.791Z,1215.53
2022-10-15T14:17:26.371Z,1222.40
2022-10-15T14:20:21.711Z,1226.80
2022-10-15T14:22:43.562Z,1224.13
2022-10-15T14:27:48.116Z,1219.63
2022-10-15T14:30:21.358Z,1222.90
2022-10-15T14:32:52.732Z,1227.47
2022-10-15T14:35:46.411Z,1226.13
2022-10-15T14:38:13.762Z,1224.57
2022-10-15T14:40:40.906Z,1224.17
2022-10-15T14:43:14.859Z,1214.75
2022-10-15T14:45:51.226Z,1218.00
2022-10-15T14:48:24.082Z,1222.35
2022-10-15T14:50:51.524Z,1220.53
2022-10-15T14:53:20.205Z,1223.28
2022-10-15T14:55:49.435Z,1225.23
2022-10-15T14:58:18.866Z,1223.37
2022-10-15T15:00:49.541Z,1224.78
2022-10-15T15:03:19.760Z,1226.57
2022-10-15T15:05:48.636Z,1214.17
2022-10-15T15:08:16.225Z,1215.10
2022-10-15T15:10:44.258Z,1218.35
2022-10-15T15:13:16.759Z,1210.15
2022-10-15T15:15:44.037Z,1207.85
2022-10-15T15:18:11.668Z,1210.40
2022-10-15T15:20:40.339Z,1213.72
2022-10-15T15:23:07.838Z,1216.15
2022-10-15T15:25:36.950Z,1215.50
2022-10-15T15:28:04.671Z,1220.13
2022-10-15T15:30:33.322Z,1229.03
2022-10-15T15:33:00.813Z,1220.07
2022-10-15T15:35:40.261Z,1217.03
2022-10-15T15:38:11.292Z,1214.35
2022-10-15T15:40:38.626Z,1215.63
2022-10-15T15:43:05.902Z,1216.35
2022-10-15T15:45:33.386Z,1217.25
2022-10-15T15:48:03.457Z,1221.75
2022-10-15T15:50:30.725Z,1216.53
2022-10-15T15:52:58.262Z,1218.10
2022-10-15T15:55:25.532Z,1224.87
2022-10-15T15:57:52.630Z,1221.55
2022-10-15T16:00:20.073Z,1218.60
2022-10-15T16:02:47.478Z,1215.63
2022-10-15T16:05:15.886Z,1212.90
2022-10-15T16:07:43.574Z,1214.68
2022-10-15T16:10:12.486Z,1214.43
2022-10-15T16:12:40.147Z,1218.05
2022-10-15T16:15:10.268Z,1217.82
2022-10-15T16:17:40.782Z,1219.22
2022-10-15T16:20:08.273Z,1215.20
2022-10-15T16:22:35.618Z,1216.68
2022-10-15T16:25:02.760Z,1217.13
2022-10-15T16:27:30.009Z,1219.55
2022-10-15T16:29:57.692Z,1229.10
2022-10-15T16:32:25.723Z,1224.57
2022-10-15T16:34:53.019Z,1231.10
2022-10-15T16:37:20.241Z,1223.87
2022-10-15T16:39:47.638Z,1233.32
2022-10-15T16:42:14.824Z,1238.95
2022-10-15T16:44:42.133Z,1238.00
2022-10-15T16:47:09.820Z,1239.50
2022-10-15T16:49:37.290Z,1241.95
2022-10-15T16:52:05.130Z,1244.22
2022-10-15T16:54:32.274Z,1246.90
2022-10-15T16:56:59.487Z,1244.72
2022-10-15T16:59:26.865Z,1242.83
2022-10-15T17:01:54.198Z,1237.93
2022-10-15T17:04:21.418Z,1236.80
2022-10-15T17:06:49.092Z,1234.40
2022-10-15T17:09:16.190Z,1242.15
2022-10-15T17:11:45.937Z,1243.82
2022-10-15T17:14:17.200Z,1241.18
2022-10-15T17:16:45.708Z,1247.33
2022-10-15T17:19:13.624Z,1230.22
2022-10-15T17:21:42.657Z,1223.07
2022-10-15T17:24:12.450Z,1225.50
2022-10-15T17:26:40.470Z,1228.38
2022-10-15T17:29:09.670Z,1236.55
2022-10-15T17:31:37.495Z,1236.57
2022-10-15T17:34:06.603Z,1227.18
2022-10-15T17:36:36.881Z,1214.47
2022-10-15T17:39:04.268Z,1207.82
2022-10-15T17:41:31.588Z,1204.63
2022-10-15T17:43:59.293Z,1207.10
2022-10-15T17:46:27.966Z,1214.88
2022-10-15T17:48:55.960Z,1210.72
2022-10-15T17:51:24.311Z,1223.28
2022-10-15T17:53:55.970Z,1224.32
2022-10-15T17:56:26.154Z,1226.97
2022-10-15T17:58:56.977Z,1226.00
2022-10-15T18:01:56.307Z,1215.07
2022-10-15T18:04:19.622Z,1225.65
2022-10-15T18:06:46.871Z,1223.45
2022-10-15T18:09:24.086Z,1233.93
2022-10-15T18:11:51.323Z,1216.82
2022-10-15T18:16:45.887Z,1220.00
2022-10-15T18:19:13.041Z,1220.60
2022-10-15T18:21:40.349Z,1217.68
2022-10-15T18:24:07.627Z,1206.57
2022-10-15T18:26:34.833Z,1219.60
2022-10-15T18:29:02.135Z,1223.75
2022-10-15T18:31:31.171Z,1223.00
2022-10-15T18:33:58.482Z,1219.13
2022-10-15T18:36:27.506Z,1217.57
2022-10-15T18:38:54.957Z,1218.13
2022-10-15T18:41:22.182Z,1216.93
2022-10-15T18:43:53.352Z,1216.07
2022-10-15T18:46:20.660Z,1216.07
2022-10-15T18:48:48.864Z,1214.80
2022-10-15T18:51:16.499Z,1219.78
2022-10-15T18:53:43.776Z,1206.10
2022-10-15T18:56:14.545Z,1207.00
2022-10-15T18:58:45.675Z,1211.82
2022-10-15T19:01:33.818Z,1219.18
2022-10-15T19:04:02.785Z,1217.32
2022-10-15T19:06:35.440Z,1216.05
2022-10-15T19:09:03.736Z,1217.35
2022-10-15T19:11:33.815Z,1216.43
2022-10-15T19:14:03.128Z,1211.03
2022-10-15T19:16:30.229Z,1184.15
2022-10-15T19:19:02.460Z,1196.43
2022-10-15T19:21:30.693Z,1202.60
2022-10-15T19:23:57.972Z,1189.30
2022-10-15T19:26:25.272Z,1192.53
2022-10-15T19:28:53.541Z,1195.82
2022-10-15T19:31:27.966Z,1206.28
2022-10-15T19:33:57.977Z,1210.95
2022-10-15T19:36:29.437Z,1208.97
2022-10-15T19:38:56.923Z,1215.47
2022-10-15T19:41:24.382Z,1204.60
2022-10-15T19:43:52.133Z,1204.63
2022-10-15T19:46:19.493Z,1216.35
2022-10-15T19:48:47.648Z,1214.97
2022-10-15T19:51:14.847Z,1212.90
2022-10-15T19:53:41.963Z,1205.37
2022-10-15T19:56:10.765Z,1207.35
2022-10-15T19:58:37.930Z,1209.72
2022-10-15T20:01:05.759Z,1201.28
2022-10-15T20:03:33.895Z,1199.13
2022-10-15T20:06:08.743Z,1190.22
2022-10-15T20:08:36.421Z,1198.55
2022-10-15T20:11:05.676Z,1211.10
2022-10-15T20:13:32.870Z,1208.38
2022-10-15T20:16:02.855Z,1203.28
2022-10-15T20:18:30.053Z,1206.88
2022-10-15T20:20:57.182Z,1205.47
2022-10-15T20:23:26.287Z,1216.53
2022-10-15T20:25:53.486Z,1208.60
2022-10-15T20:28:20.842Z,1217.03
2022-10-15T20:30:49.699Z,1211.43
2022-10-15T20:33:16.933Z,1218.03
2022-10-15T20:35:44.101Z,1206.90
2022-10-15T20:38:12.134Z,1214.38
2022-10-15T20:40:40.760Z,1210.53
2022-10-15T20:43:08.139Z,1206.53
2022-10-15T20:45:41.781Z,1211.32
2022-10-15T20:48:12.305Z,1213.35
2022-10-15T20:50:39.503Z,1195.47
2022-10-15T20:53:06.675Z,1199.93
2022-10-15T20:55:35.417Z,1196.30
2022-10-15T20:58:02.995Z,1198.85
2022-10-15T21:00:30.327Z,1200.00
2022-10-15T21:02:57.507Z,1203.28
2022-10-15T21:05:24.668Z,1198.57
2022-10-15T21:07:51.944Z,1204.20
2022-10-15T21:10:19.113Z,1210.72
2022-10-15T21:12:46.313Z,1215.15
2022-10-15T21:15:13.522Z,1210.30
2022-10-15T21:17:41.853Z,1213.60
2022-10-15T21:20:09.428Z,1203.03
2022-10-15T21:22:36.606Z,1211.30
2022-10-15T21:25:04.322Z,1206.20
2022-10-15T21:27:31.582Z,1212.65
2022-10-15T21:29:58.843Z,1202.77
2022-10-15T21:32:26.032Z,1195.80
2022-10-15T21:34:53.268Z,1204.90
2022-10-15T21:37:20.525Z,1211.35
2022-10-15T21:39:47.649Z,1202.05
2022-10-15T21:42:14.862Z,1211.75
2022-10-15T21:44:41.958Z,1215.63
2022-10-15T21:47:10.454Z,1210.57
2022-10-15T21:49:41.638Z,1203.22
2022-10-15T21:52:08.729Z,1212.22
2022-10-15T21:54:35.889Z,1210.38
2022-10-15T21:57:03.055Z,1214.38
2022-10-15T21:59:30.131Z,1206.68
2022-10-15T22:01:57.380Z,1218.17
2022-10-15T22:04:24.574Z,1200.72
2022-10-15T22:06:51.699Z,1205.03
2022-10-15T22:09:18.769Z,1206.75
2022-10-15T22:11:45.934Z,1203.85
2022-10-15T22:14:13.407Z,1205.85
2022-10-15T22:16:41.213Z,1205.03
2022-10-15T22:19:09.721Z,1204.05
2022-10-15T22:21:37.743Z,1204.63
2022-10-15T22:24:07.187Z,1206.45
2022-10-15T22:26:38.469Z,1207.47
2022-10-15T22:29:06.550Z,1192.40
2022-10-15T22:31:34.281Z,1189.40
2022-10-15T22:34:01.912Z,1188.30
2022-10-15T22:36:29.906Z,1192.93
2022-10-15T22:38:58.664Z,1193.97
2022-10-15T22:41:25.873Z,1190.80
2022-10-15T22:43:52.982Z,1197.22
2022-10-15T22:46:20.169Z,1208.23
2022-10-15T22:48:49.307Z,1202.50
2022-10-15T22:51:16.541Z,1208.35
2022-10-15T22:53:43.904Z,1215.65
2022-10-15T22:56:18.538Z,1210.13
2022-10-15T22:58:45.911Z,1217.60
2022-10-15T23:01:32.042Z,1214.78
2022-10-15T23:04:01.878Z,1218.40
2022-10-15T23:06:29.721Z,1216.25
2022-10-15T23:08:57.917Z,1218.45
2022-10-15T23:11:32.265Z,1201.45
2022-10-15T23:14:03.602Z,1222.18
2022-10-15T23:16:32.418Z,1211.50
2022-10-15T23:19:00.556Z,1217.43
2022-10-15T23:21:32.934Z,1195.60
2022-10-15T23:24:00.869Z,1201.20
2022-10-15T23:29:02.091Z,1217.65
2022-10-15T23:31:30.413Z,1214.55
2022-10-15T23:33:57.970Z,1214.68
2022-10-15T23:36:25.776Z,1191.43
2022-10-15T23:38:57.197Z,1190.53
2022-10-15T23:41:24.744Z,1193.87
2022-10-15T23:43:52.114Z,1195.83
2022-10-15T23:46:19.462Z,1196.10
2022-10-15T23:48:47.082Z,1211.15
2022-10-15T23:51:17.142Z,1210.88
2022-10-15T23:56:17.595Z,1206.67
2022-10-15T23:58:49.020Z,1214.00
